Search for airport 
image banner adimage banner adimage banner ad
image banner ad

PS41 - Upmc-Horizon Hospital/Shenango Campus

Located in Farrell, United States

ICAO - PS41, IATA -

Data provided by Airmate  

General information

Coordinates: N41°12'35" W80°28'8"
Elevation is 1121 feet MSL.
Magnetic variation is -09° East
View others Airports in Pennsylvania

Operational data

Special qualification required
Current time UTC:
Current local time:
Weather at : KYNG - Youngstown-Warren Rgnl ( 19 km )
METAR: KYNG 091151Z 12003KT 10SM OVC085 06/03 A3003 RMK AO2 SLP174 T00560028 10056 20022 56013
TAF: KYNG 091126Z 0912/1012 13004KT P6SM OVC120 FM091400 14004KT 6SM -RA OVC035 FM091600 12006KT 5SM -RA OVC025 FM091800 08010KT 2SM RA OVC008 FM100300 35008KT P6SM OVC008 FM100700 34007KT P6SM BKN015
View NOTAMs / SUP AIP / TFR affecting this airport [VIEW]
Communications frequencies: [VIEW]

Runways:

Airport contact information

Address: Farrell United States

Satellite view of PS41